Pinellas Park, FL

11:43 AM EDT on June 26, 2017 (GMT -0400)
Pinellas Park | | Change Station

Elev 26 ft 27.83 °N, 82.70 °W | Updated 20 seconds ago

Thunderstorm
Thunderstorm
78.3 °F
Feels Like 81 °F
N
3.0
Wind Variable Wind from East

Today
High -- | Low -- °F
--% Chance of Precip.
Yesterday
High -- | Low -- °F
Precip. -- in
Pressure 30.09 in
Visibility 0.5 miles
Clouds Mostly Cloudy 2200 ft
Mostly Cloudy 4000 ft
Mostly Cloudy 9500 ft
Heat Index 81 °F
Dew Point 75 °F
Humidity 91%
Rainfall 0.00 in
Snow Depth Not available.
6:36 AM 8:30 PM
Waxing Crescent, 9% visible
SPECI KPIE 261523Z 15016G24KT 1/2SM R18L/3000VP6000FT +TSRA BKN022 BKN040 BKN095 26/23 A3009 RMK AO2 RAB11 TSB23 P0042 T02560228
Pressure 30.09 in
Visibility 0.5 miles
Clouds Mostly Cloudy 2200 ft
Mostly Cloudy 4000 ft
Mostly Cloudy 9500 ft
Heat Index 81 °F
Dew Point 75 °F
Humidity 91%
Rainfall 0.00 in
Snow Depth Not available.
6:36 AM 8:30 PM
Waxing Crescent, 9% visible
SPECI KPIE 261523Z 15016G24KT 1/2SM R18L/3000VP6000FT +TSRA BKN022 BKN040 BKN095 26/23 A3009 RMK AO2 RAB11 TSB23 P0042 T02560228

Get Severe Weather Alerts

Thanks for signing up!

Be on the lookout for a verification email in your inbox.

You'll start receiving the daily forecast at 6 AM.

×

10-Day Weather Forecast

Almanac

Astronomy

Jun. 26, 2017 Rise Set
Actual Time
Civil Twilight
Nautical Twilight
Astronomical Twilight
Moon
Length of Visible Light
Length of Day
Tomorrow will be .
, % of the Moon is Illuminated

Today's Extremes

State Highs State Lows

Community

WunderPhotos

Category 6

Welcome to Category 6. This is the collective home for Weather Underground's featured writeups by Dr. Jeff Masters (right), Bob Henson (left), Chris Burt, and other regular contributors.

Nearby

Air Quality

  Air Quality AQ Index Pollutant
Not available.

Snow Depth

Station Depth Elevation

Earthquake Activity

City Distance Mag. Time & Date
Minimum magnitude displayed is 2.5.

Coastal Water Temperatures

Place Temperature

Stations

Nearby Weather Stations

Station Location Temp. Windchill Dew Point Humidity Wind Precip. Elev Updated Type
                   

Watches & Warnings

There are currently no watches in effect.